Time;durP1;ratioP1;P1;durP2;ratioP2;P2;SDS_P1;SDS_P2;PMS_P1;PMS_P2;Temp;Humidity;BMP_temperature;BMP_pressure;BME280_temperature;BME280_humidity;BME280_pressure;Samples;Min_cycle;Max_cycle;Signal;HPM_P1;HPM_P2
2024/01/25 00:00:27;;;;;;;;;;;6.80;99.90;;;;;;5080945;28;19939;-79
2024/01/25 00:02:53;;;;;;;;;;;6.90;99.90;;;;;;5081622;28;19923;-79
2024/01/25 00:05:18;;;;;;;;;;;6.60;99.90;;;;;;5105256;28;20431;-79
2024/01/25 00:07:50;;;;;;;;;;;6.80;99.90;;;;;;5088496;28;19988;-79
2024/01/25 00:10:19;;;;;;;;;;;6.30;99.90;;;;;;5086213;27;19931;-79
2024/01/25 00:12:44;;;;;;;;;;;6.60;99.90;;;;;;5071613;27;20816;-80
2024/01/25 00:15:13;;;;;;;;;;;6.70;99.90;;;;;;5071212;27;19949;-79
2024/01/25 00:17:45;;;;;;;;;;;6.80;99.90;;;;;;5087226;27;20455;-79
2024/01/25 00:20:11;;;;;;;;;;;6.40;99.90;;;;;;5086743;28;19928;-79
2024/01/25 00:22:38;;;;;;;;;;;6.60;99.90;;;;;;5087109;28;19947;-79
2024/01/25 00:25:04;;;;;;;;;;;6.70;99.90;;;;;;5068301;28;19968;-79
2024/01/25 00:27:31;;;;;;;;;;;6.90;99.90;;;;;;5104234;27;19978;-79
2024/01/25 00:29:57;;;;;;;;;;;6.30;99.90;;;;;;5070575;28;19928;-79
2024/01/25 00:32:22;;;;;;;;;;;6.90;99.90;;;;;;5087591;28;20041;-79
2024/01/25 00:34:48;;;;;;;;;;;6.90;99.90;;;;;;5086148;28;19969;-78
2024/01/25 00:37:14;;;;;;;;;;;6.40;99.90;;;;;;5085750;27;19938;-79
2024/01/25 00:39:39;;;;;;;;;;;6.70;99.90;;;;;;5084750;27;20356;-78
2024/01/25 00:42:06;;;;;;;;;;;6.70;99.90;;;;;;5086140;28;19935;-79
2024/01/25 00:44:32;;;;;;;;;;;6.80;99.90;;;;;;5084521;28;19932;-79
2024/01/25 00:46:58;;;;;;;;;;;6.20;99.90;;;;;;5086742;28;19924;-79
2024/01/25 00:49:24;;;;;;;;;;;6.80;99.90;;;;;;5085149;28;19935;-79
2024/01/25 00:51:58;;;;;;;;;;;6.50;99.90;;;;;;5105497;27;19938;-79
2024/01/25 00:54:24;;;;;;;;;;;6.20;99.90;;;;;;5087792;28;19924;-78
2024/01/25 00:56:52;;;;;;;;;;;6.30;99.90;;;;;;5084779;28;20281;-79
2024/01/25 00:59:22;;;;;;;;;;;6.20;99.90;;;;;;5087530;27;19944;-79
2024/01/25 01:01:48;;;;;;;;;;;6.70;99.90;;;;;;5085162;28;19928;-79
2024/01/25 01:04:14;;;;;;;;;;;6.70;99.90;;;;;;5088439;28;19924;-78
2024/01/25 01:06:40;;;;;;;;;;;6.10;99.90;;;;;;5086133;28;20375;-79
2024/01/25 01:09:07;;;;;;;;;;;6.80;99.90;;;;;;5086867;28;19932;-79
2024/01/25 01:11:32;;;;;;;;;;;6.80;99.90;;;;;;5087014;28;20287;-78
2024/01/25 01:13:58;;;;;;;;;;;6.30;99.90;;;;;;5087096;28;19924;-79
2024/01/25 01:16:24;;;;;;;;;;;6.70;99.90;;;;;;5088349;28;19928;-78
2024/01/25 01:18:49;;;;;;;;;;;6.30;99.90;;;;;;5089812;28;19921;-79
2024/01/25 01:21:15;;;;;;;;;;;6.70;99.90;;;;;;5072065;28;20403;-78
2024/01/25 01:23:41;;;;;;;;;;;6.50;99.90;;;;;;5072191;28;19931;-77
2024/01/25 01:26:07;;;;;;;;;;;6.00;99.90;;;;;;5054733;27;20032;-79
2024/01/25 01:28:32;;;;;;;;;;;5.90;99.90;;;;;;5109425;27;20022;-78
2024/01/25 01:30:58;;;;;;;;;;;5.90;99.90;;;;;;5107128;27;20397;-79
2024/01/25 01:33:24;;;;;;;;;;;6.70;99.90;;;;;;5073492;28;19931;-80
2024/01/25 01:35:49;;;;;;;;;;;6.50;99.90;;;;;;5088211;28;19927;-79
2024/01/25 01:38:15;;;;;;;;;;;6.30;99.90;;;;;;5089203;28;20354;-79
2024/01/25 01:40:41;;;;;;;;;;;6.60;99.90;;;;;;5088692;28;20302;-79
2024/01/25 01:43:06;;;;;;;;;;;6.50;99.90;;;;;;5071449;28;20402;-79
2024/01/25 01:45:33;;;;;;;;;;;5.80;99.90;;;;;;5086777;27;20453;-78
2024/01/25 01:48:13;;;;;;;;;;;6.50;99.90;;;;;;5087378;28;19927;-79
2024/01/25 01:50:39;;;;;;;;;;;6.00;99.90;;;;;;5087818;27;19924;-79
2024/01/25 01:53:05;;;;;;;;;;;6.20;99.90;;;;;;5088305;28;19927;-78
2024/01/25 01:55:31;;;;;;;;;;;6.10;99.90;;;;;;5087415;28;19930;-79
2024/01/25 01:57:57;;;;;;;;;;;6.10;99.90;;;;;;5105580;28;20004;-79
2024/01/25 02:00:24;;;;;;;;;;;5.80;99.90;;;;;;5087206;28;19950;-78
2024/01/25 02:02:49;;;;;;;;;;;6.40;99.90;;;;;;5107089;28;20030;-79
2024/01/25 02:05:15;;;;;;;;;;;5.70;99.90;;;;;;5094405;28;19984;-77
2024/01/25 02:07:42;;;;;;;;;;;6.30;99.90;;;;;;5075453;28;20405;-78
2024/01/25 02:10:08;;;;;;;;;;;6.20;99.90;;;;;;5094129;28;20522;-78
2024/01/25 02:12:34;;;;;;;;;;;6.30;99.90;;;;;;5089917;28;19932;-79
2024/01/25 02:15:00;;;;;;;;;;;6.50;99.90;;;;;;5074755;27;19923;-78
2024/01/25 02:17:25;;;;;;;;;;;6.00;99.90;;;;;;5106624;27;19924;-77
2024/01/25 02:19:51;;;;;;;;;;;6.10;99.90;;;;;;5106009;28;19980;-78
2024/01/25 02:22:18;;;;;;;;;;;6.10;99.90;;;;;;5051729;27;19934;-78
2024/01/25 02:24:44;;;;;;;;;;;6.40;99.90;;;;;;5085568;28;19927;-76
2024/01/25 02:27:10;;;;;;;;;;;5.80;99.90;;;;;;5084012;28;19935;-79
2024/01/25 02:29:36;;;;;;;;;;;5.80;99.90;;;;;;5088302;28;20533;-78
2024/01/25 02:32:01;;;;;;;;;;;5.90;99.90;;;;;;5103606;27;19928;-79
2024/01/25 02:34:27;;;;;;;;;;;5.70;99.90;;;;;;5089087;28;19927;-79
2024/01/25 02:36:52;;;;;;;;;;;6.10;99.90;;;;;;5108133;27;19945;-79
2024/01/25 02:39:18;;;;;;;;;;;6.30;99.90;;;;;;5073872;28;19954;-79
2024/01/25 02:41:44;;;;;;;;;;;6.20;99.90;;;;;;5088345;28;20393;-78
2024/01/25 02:44:11;;;;;;;;;;;5.80;99.90;;;;;;5087169;28;19932;-79
2024/01/25 02:46:36;;;;;;;;;;;6.20;99.90;;;;;;5099820;28;19928;-79
2024/01/25 02:49:02;;;;;;;;;;;6.00;99.90;;;;;;5085315;28;19928;-79
2024/01/25 02:51:27;;;;;;;;;;;6.30;99.90;;;;;;5099778;27;19928;-79
2024/01/25 02:53:53;;;;;;;;;;;5.90;99.90;;;;;;5102790;28;20345;-79
2024/01/25 02:56:19;;;;;;;;;;;5.60;99.90;;;;;;5084173;28;20020;-79
2024/01/25 02:58:44;;;;;;;;;;;5.60;99.90;;;;;;5101556;27;19932;-79
2024/01/25 03:01:11;;;;;;;;;;;5.80;99.90;;;;;;5066802;28;19927;-80
2024/01/25 03:03:38;;;;;;;;;;;4.60;99.90;;;;;;5100769;28;19928;-78
2024/01/25 03:06:06;;;;;;;;;;;5.70;99.90;;;;;;5065502;28;19954;-79
2024/01/25 03:08:31;;;;;;;;;;;6.10;99.90;;;;;;5084723;28;20433;-78
2024/01/25 03:10:57;;;;;;;;;;;5.40;99.90;;;;;;5085224;28;20011;-79
2024/01/25 03:13:22;;;;;;;;;;;5.50;99.90;;;;;;5084185;27;20209;-78
2024/01/25 03:15:48;;;;;;;;;;;5.70;99.90;;;;;;5066464;28;19930;-78
2024/01/25 03:18:14;;;;;;;;;;;5.60;99.90;;;;;;5067511;28;19928;-79
2024/01/25 03:20:39;;;;;;;;;;;5.70;99.90;;;;;;5083359;28;19950;-78
2024/01/25 03:23:05;;;;;;;;;;;5.70;99.90;;;;;;5085422;28;19927;-79
2024/01/25 03:25:31;;;;;;;;;;;5.60;99.90;;;;;;5082608;28;19927;-79
2024/01/25 03:27:57;;;;;;;;;;;5.70;99.90;;;;;;5082152;28;19946;-79
2024/01/25 03:30:22;;;;;;;;;;;5.70;99.90;;;;;;5084320;28;19936;-78
2024/01/25 03:32:48;;;;;;;;;;;5.70;99.90;;;;;;5085788;28;20278;-78
2024/01/25 03:35:14;;;;;;;;;;;5.70;99.90;;;;;;5082597;28;20768;-78
2024/01/25 03:37:39;;;;;;;;;;;5.70;99.90;;;;;;5083205;28;20046;-78
2024/01/25 03:40:05;;;;;;;;;;;5.70;99.90;;;;;;5104991;27;19951;-78
2024/01/25 03:42:31;;;;;;;;;;;5.70;99.90;;;;;;5086541;28;19931;-77
2024/01/25 03:44:57;;;;;;;;;;;5.70;99.90;;;;;;5069562;28;19934;-78
2024/01/25 03:47:23;;;;;;;;;;;5.60;99.90;;;;;;5069522;28;19942;-78
2024/01/25 03:49:48;;;;;;;;;;;5.80;99.90;;;;;;5072612;28;19928;-78
2024/01/25 03:52:14;;;;;;;;;;;5.60;99.90;;;;;;5087821;28;19954;-79
2024/01/25 03:54:39;;;;;;;;;;;5.60;99.90;;;;;;5088497;28;19936;-79
2024/01/25 03:57:05;;;;;;;;;;;5.50;99.90;;;;;;5088359;27;20051;-79
2024/01/25 03:59:31;;;;;;;;;;;5.80;99.90;;;;;;5084111;28;20318;-79
2024/01/25 04:01:56;;;;;;;;;;;5.70;99.90;;;;;;5068383;28;20399;-79
2024/01/25 04:04:22;;;;;;;;;;;5.60;99.90;;;;;;5070726;28;20415;-80
2024/01/25 04:06:48;;;;;;;;;;;5.50;99.90;;;;;;5069761;28;20378;-80
2024/01/25 04:09:15;;;;;;;;;;;5.50;99.90;;;;;;5069021;28;19923;-79
2024/01/25 04:11:40;;;;;;;;;;;5.60;99.90;;;;;;5085629;28;19972;-79
2024/01/25 04:14:06;;;;;;;;;;;5.60;99.90;;;;;;5067450;28;19936;-79
2024/01/25 04:16:34;;;;;;;;;;;5.60;99.90;;;;;;5102286;27;20327;-80
2024/01/25 04:18:59;;;;;;;;;;;5.60;99.90;;;;;;5084629;27;20382;-79
2024/01/25 04:21:26;;;;;;;;;;;6.20;99.90;;;;;;5085278;28;19928;-79
2024/01/25 04:23:52;;;;;;;;;;;5.50;99.90;;;;;;5066601;27;19947;-79
2024/01/25 04:26:18;;;;;;;;;;;5.50;99.90;;;;;;5086554;28;19930;-79
2024/01/25 04:28:43;;;;;;;;;;;5.40;99.90;;;;;;5069927;28;19981;-80
2024/01/25 04:31:09;;;;;;;;;;;5.50;99.90;;;;;;5086031;27;19928;-80
2024/01/25 04:33:34;;;;;;;;;;;5.80;99.90;;;;;;5085670;28;19935;-79
2024/01/25 04:36:00;;;;;;;;;;;5.40;99.90;;;;;;5086429;28;19970;-79
2024/01/25 04:38:26;;;;;;;;;;;5.70;99.90;;;;;;5085280;28;19959;-80
2024/01/25 04:40:51;;;;;;;;;;;5.60;99.90;;;;;;5086503;27;20572;-79
2024/01/25 04:43:20;;;;;;;;;;;5.50;99.90;;;;;;5103197;27;20378;-79
2024/01/25 04:45:45;;;;;;;;;;;5.50;99.90;;;;;;5085332;28;19938;-79
2024/01/25 04:48:11;;;;;;;;;;;5.50;99.90;;;;;;5086069;28;19928;-79
2024/01/25 04:50:38;;;;;;;;;;;5.50;99.90;;;;;;5067031;28;20157;-80
2024/01/25 04:53:04;;;;;;;;;;;5.40;99.90;;;;;;5067554;28;20282;-80
2024/01/25 04:55:30;;;;;;;;;;;5.30;99.90;;;;;;5085227;28;19935;-79
2024/01/25 04:57:55;;;;;;;;;;;5.50;99.90;;;;;;5085022;27;19928;-79
2024/01/25 05:00:22;;;;;;;;;;;5.50;99.90;;;;;;5084877;27;19977;-79
2024/01/25 05:02:53;;;;;;;;;;;5.40;99.90;;;;;;5085003;27;19934;-79
2024/01/25 05:05:20;;;;;;;;;;;5.40;99.90;;;;;;5085545;28;19928;-79
2024/01/25 05:07:46;;;;;;;;;;;5.40;99.90;;;;;;5084814;28;19928;-80
2024/01/25 05:10:11;;;;;;;;;;;5.70;99.90;;;;;;5084805;28;19946;-79
2024/01/25 05:12:37;;;;;;;;;;;5.40;99.90;;;;;;5054760;28;19955;-80
2024/01/25 05:15:03;;;;;;;;;;;5.20;99.90;;;;;;5086271;27;19928;-79
2024/01/25 05:17:29;;;;;;;;;;;5.30;99.90;;;;;;5068113;28;19931;-79
2024/01/25 05:19:54;;;;;;;;;;;5.40;99.90;;;;;;5055354;28;19932;-80
2024/01/25 05:22:21;;;;;;;;;;;5.70;99.90;;;;;;5084259;27;19927;-79
2024/01/25 05:24:47;;;;;;;;;;;5.30;99.90;;;;;;5066590;27;19924;-80
2024/01/25 05:27:13;;;;;;;;;;;5.30;99.90;;;;;;5084300;28;19927;-80
2024/01/25 05:29:44;;;;;;;;;;;5.20;99.90;;;;;;5084328;28;19920;-80
2024/01/25 05:32:10;;;;;;;;;;;5.90;99.90;;;;;;5068516;27;20024;-80
2024/01/25 05:34:35;;;;;;;;;;;5.20;99.90;;;;;;5051790;27;19935;-79
2024/01/25 05:37:01;;;;;;;;;;;5.30;99.90;;;;;;5051679;27;19928;-79
2024/01/25 05:39:27;;;;;;;;;;;5.20;99.90;;;;;;5084670;27;19924;-79
2024/01/25 05:41:52;;;;;;;;;;;5.30;99.90;;;;;;5083380;27;20171;-80
2024/01/25 05:44:18;;;;;;;;;;;5.30;99.90;;;;;;5052054;28;20972;-79
2024/01/25 05:46:43;;;;;;;;;;;5.40;99.90;;;;;;5083510;28;19929;-78
2024/01/25 05:49:09;;;;;;;;;;;5.30;99.90;;;;;;5083014;27;20010;-79
2024/01/25 05:51:35;;;;;;;;;;;5.40;99.90;;;;;;5085317;28;20908;-79
2024/01/25 05:54:01;;;;;;;;;;;5.40;99.90;;;;;;5084485;27;20006;-80
2024/01/25 05:56:27;;;;;;;;;;;5.30;99.90;;;;;;5084322;28;20015;-79
2024/01/25 05:58:55;;;;;;;;;;;5.40;99.90;;;;;;5086707;28;20014;-79
2024/01/25 06:01:21;;;;;;;;;;;5.30;99.90;;;;;;5083271;28;20986;-80
2024/01/25 06:03:46;;;;;;;;;;;5.30;99.90;;;;;;5084660;28;19974;-79
2024/01/25 06:06:12;;;;;;;;;;;5.30;99.90;;;;;;5097708;27;20381;-79
2024/01/25 06:08:38;;;;;;;;;;;5.20;99.90;;;;;;5083757;28;19930;-79
2024/01/25 06:11:04;;;;;;;;;;;5.30;99.90;;;;;;5065627;28;19924;-79
2024/01/25 06:13:31;;;;;;;;;;;5.20;99.90;;;;;;5084452;28;19939;-79
2024/01/25 06:15:56;;;;;;;;;;;5.30;99.90;;;;;;5066723;28;19946;-78
2024/01/25 06:18:28;;;;;;;;;;;5.20;99.90;;;;;;5085659;28;19935;-78
2024/01/25 06:20:53;;;;;;;;;;;5.50;99.90;;;;;;5053805;28;19932;-79
2024/01/25 06:23:24;;;;;;;;;;;5.20;99.90;;;;;;5099699;27;19928;-78
2024/01/25 06:26:17;;;;;;;;;;;5.30;99.90;;;;;;5101834;27;19931;-79
2024/01/25 06:28:43;;;;;;;;;;;5.30;99.90;;;;;;5082887;28;19928;-79
2024/01/25 06:31:12;;;;;;;;;;;5.30;99.90;;;;;;5070927;27;20042;-82
2024/01/25 06:33:57;;;;;;;;;;;3.90;99.90;;;;;;5076157;28;20015;-81
2024/01/25 06:36:22;;;;;;;;;;;5.40;99.90;;;;;;5085680;28;19995;-83
2024/01/25 06:38:48;;;;;;;;;;;5.30;99.90;;;;;;5087922;28;19968;-86
2024/01/25 06:41:14;;;;;;;;;;;5.40;99.90;;;;;;5071356;28;19928;-77
2024/01/25 06:43:41;;;;;;;;;;;5.30;99.90;;;;;;5069432;28;19928;-87
2024/01/25 06:46:07;;;;;;;;;;;5.40;99.90;;;;;;5071808;28;20671;-88
2024/01/25 06:48:33;;;;;;;;;;;5.30;99.90;;;;;;5056238;28;20444;-87
2024/01/25 06:51:05;;;;;;;;;;;5.30;99.90;;;;;;5094365;28;19931;-87
2024/01/25 06:53:34;;;;;;;;;;;3.90;99.90;;;;;;5111173;28;19924;-87
2024/01/25 06:56:02;;;;;;;;;;;5.30;99.90;;;;;;5065963;28;19931;-78
2024/01/25 06:58:30;;;;;;;;;;;5.30;99.90;;;;;;5087447;28;20320;-80
2024/01/25 07:00:56;;;;;;;;;;;5.30;99.90;;;;;;5104416;28;19935;-80
2024/01/25 07:03:22;;;;;;;;;;;5.20;99.90;;;;;;5087561;27;19945;-80
2024/01/25 07:05:47;;;;;;;;;;;5.10;99.90;;;;;;5102811;28;19928;-80
2024/01/25 07:08:13;;;;;;;;;;;5.30;99.90;;;;;;5064687;28;19935;-79
2024/01/25 07:10:39;;;;;;;;;;;5.20;99.90;;;;;;5083272;28;19932;-79
2024/01/25 07:13:05;;;;;;;;;;;4.30;99.90;;;;;;5071900;28;19928;-79
2024/01/25 07:15:30;;;;;;;;;;;5.20;99.90;;;;;;5070109;28;19928;-79
2024/01/25 07:17:56;;;;;;;;;;;5.20;99.90;;;;;;5087853;28;19927;-87
2024/01/25 07:20:23;;;;;;;;;;;5.20;99.90;;;;;;5084107;28;19932;-79
2024/01/25 07:22:48;;;;;;;;;;;5.10;99.90;;;;;;5091392;28;19924;-79
2024/01/25 07:25:14;;;;;;;;;;;5.10;99.90;;;;;;5091544;28;19952;-79
2024/01/25 07:27:51;;;;;;;;;;;5.20;99.90;;;;;;5091013;28;19934;-80
2024/01/25 07:30:17;;;;;;;;;;;5.20;99.90;;;;;;5074503;28;20395;-80
2024/01/25 07:32:43;;;;;;;;;;;5.10;99.90;;;;;;5089253;28;19939;-81
2024/01/25 07:35:12;;;;;;;;;;;5.20;99.90;;;;;;5089734;28;19923;-79
2024/01/25 07:37:38;;;;;;;;;;;5.20;99.90;;;;;;5076694;28;20113;-79
2024/01/25 07:40:04;;;;;;;;;;;5.10;99.90;;;;;;5091115;28;19927;-79
2024/01/25 07:42:29;;;;;;;;;;;5.20;99.90;;;;;;5090672;28;20407;-80
2024/01/25 07:44:55;;;;;;;;;;;5.10;99.90;;;;;;5103074;28;19932;-80
2024/01/25 07:47:20;;;;;;;;;;;5.10;99.90;;;;;;5058644;28;19924;-80
2024/01/25 07:49:48;;;;;;;;;;;5.10;99.90;;;;;;5073825;28;20306;-80
2024/01/25 07:52:14;;;;;;;;;;;5.10;99.90;;;;;;5073603;28;20383;-79
2024/01/25 07:54:39;;;;;;;;;;;5.40;99.90;;;;;;5090019;28;19924;-82
2024/01/25 07:57:06;;;;;;;;;;;5.10;99.90;;;;;;5105748;28;19972;-78
2024/01/25 07:59:32;;;;;;;;;;;5.20;99.90;;;;;;5088314;28;19934;-80
2024/01/25 08:01:58;;;;;;;;;;;5.60;99.90;;;;;;5078370;28;20019;-79
2024/01/25 08:04:23;;;;;;;;;;;5.10;99.90;;;;;;5088491;28;20378;-80
2024/01/25 08:06:49;;;;;;;;;;;5.20;99.90;;;;;;5087347;28;19928;-80
2024/01/25 08:09:15;;;;;;;;;;;5.10;99.90;;;;;;5090496;28;19981;-80
2024/01/25 08:11:41;;;;;;;;;;;5.20;99.90;;;;;;5069475;28;19932;-79
2024/01/25 08:14:07;;;;;;;;;;;5.20;99.90;;;;;;5073340;28;19931;-81
2024/01/25 08:16:34;;;;;;;;;;;5.10;99.90;;;;;;5103872;28;19928;-78
2024/01/25 08:19:00;;;;;;;;;;;5.20;99.90;;;;;;5073881;28;19974;-79
2024/01/25 08:21:26;;;;;;;;;;;5.10;99.90;;;;;;5088271;28;19974;-80
2024/01/25 08:23:51;;;;;;;;;;;5.20;99.90;;;;;;5090435;28;19923;-80
2024/01/25 08:26:18;;;;;;;;;;;5.20;99.90;;;;;;5108333;28;20495;-79
2024/01/25 08:28:44;;;;;;;;;;;5.80;99.90;;;;;;5079193;28;19924;-80
2024/01/25 08:31:12;;;;;;;;;;;5.10;99.90;;;;;;5117307;28;19928;-80
2024/01/25 08:33:47;;;;;;;;;;;5.20;99.90;;;;;;5083333;28;20076;-79
2024/01/25 08:36:18;;;;;;;;;;;5.20;99.90;;;;;;5094168;28;19928;-80
2024/01/25 08:38:44;;;;;;;;;;;5.20;99.90;;;;;;5090197;28;19924;-80
2024/01/25 08:41:11;;;;;;;;;;;5.40;99.90;;;;;;5091912;28;20287;-80
2024/01/25 08:43:40;;;;;;;;;;;5.30;99.90;;;;;;5093588;28;19930;-79
2024/01/25 08:46:06;;;;;;;;;;;5.40;99.90;;;;;;5076772;28;20819;-78
2024/01/25 08:48:31;;;;;;;;;;;5.40;99.90;;;;;;5092649;28;19959;-80
2024/01/25 08:50:57;;;;;;;;;;;5.40;99.90;;;;;;5090806;28;19930;-81
2024/01/25 08:53:26;;;;;;;;;;;5.40;99.90;;;;;;5072436;28;19928;-81
2024/01/25 08:55:53;;;;;;;;;;;5.40;99.90;;;;;;5092762;28;19927;-80
2024/01/25 08:58:19;;;;;;;;;;;5.50;99.90;;;;;;5092789;28;19954;-81
2024/01/25 09:00:45;;;;;;;;;;;5.60;99.90;;;;;;5092615;28;19935;-80
2024/01/25 09:03:11;;;;;;;;;;;5.60;99.90;;;;;;5097016;28;19931;-79
2024/01/25 09:05:40;;;;;;;;;;;5.90;99.90;;;;;;5097340;28;19936;-80
2024/01/25 09:08:06;;;;;;;;;;;5.70;99.90;;;;;;5098404;28;19928;-81
2024/01/25 09:10:31;;;;;;;;;;;5.70;99.90;;;;;;5093843;28;19928;-80
2024/01/25 09:12:57;;;;;;;;;;;5.70;99.90;;;;;;5074129;28;19923;-80
2024/01/25 09:15:23;;;;;;;;;;;5.60;99.90;;;;;;5094506;28;19927;-80
2024/01/25 09:17:48;;;;;;;;;;;5.70;99.90;;;;;;5073429;28;19928;-80
2024/01/25 09:20:14;;;;;;;;;;;5.80;99.90;;;;;;5091276;28;19928;-80
2024/01/25 09:22:40;;;;;;;;;;;5.70;99.90;;;;;;5092888;28;19938;-80
2024/01/25 09:25:06;;;;;;;;;;;5.80;99.90;;;;;;5110205;28;19935;-79
2024/01/25 09:27:31;;;;;;;;;;;5.80;99.90;;;;;;5073889;28;19935;-80
2024/01/25 09:29:57;;;;;;;;;;;5.80;99.90;;;;;;5078051;28;19924;-80
2024/01/25 09:32:23;;;;;;;;;;;5.90;99.90;;;;;;5093799;28;19923;-80
2024/01/25 09:34:48;;;;;;;;;;;5.90;99.90;;;;;;5112962;28;20294;-80
2024/01/25 09:37:14;;;;;;;;;;;5.90;99.90;;;;;;5074452;28;19970;-80
2024/01/25 09:39:40;;;;;;;;;;;5.90;99.90;;;;;;5078261;28;19927;-81
2024/01/25 09:42:07;;;;;;;;;;;5.90;99.90;;;;;;5075986;28;19935;-81
2024/01/25 09:44:32;;;;;;;;;;;5.90;99.90;;;;;;5095135;28;19927;-80
2024/01/25 09:46:58;;;;;;;;;;;6.10;99.90;;;;;;5077650;28;19931;-80
2024/01/25 09:49:24;;;;;;;;;;;6.10;99.90;;;;;;5092768;28;19935;-80
2024/01/25 09:51:51;;;;;;;;;;;5.90;99.90;;;;;;5074803;28;20023;-80
2024/01/25 09:54:17;;;;;;;;;;;6.20;99.90;;;;;;5073207;28;20030;-80
2024/01/25 09:56:50;;;;;;;;;;;6.20;99.90;;;;;;5073846;28;19934;-80
2024/01/25 09:59:16;;;;;;;;;;;6.30;99.90;;;;;;5091834;28;19970;-79
2024/01/25 10:01:42;;;;;;;;;;;6.20;99.90;;;;;;5057242;28;20359;-79
2024/01/25 10:04:08;;;;;;;;;;;6.20;99.90;;;;;;5089781;28;19930;-80
2024/01/25 10:06:34;;;;;;;;;;;6.30;99.90;;;;;;5088854;28;20371;-80
2024/01/25 10:08:59;;;;;;;;;;;6.30;99.90;;;;;;5090691;28;19958;-77
2024/01/25 10:11:35;;;;;;;;;;;6.50;99.90;;;;;;5090154;28;19928;-80
2024/01/25 10:14:01;;;;;;;;;;;6.50;99.90;;;;;;5089668;28;20011;-80
2024/01/25 10:16:27;;;;;;;;;;;6.50;99.90;;;;;;5090162;28;20007;-80
2024/01/25 10:18:54;;;;;;;;;;;6.50;99.90;;;;;;5071174;28;19927;-79
2024/01/25 10:21:19;;;;;;;;;;;6.50;99.90;;;;;;5081751;28;19932;-80
2024/01/25 10:23:48;;;;;;;;;;;6.70;99.90;;;;;;5072653;28;19939;-80
2024/01/25 10:26:14;;;;;;;;;;;6.70;99.90;;;;;;5090119;28;19932;-80
2024/01/25 10:28:39;;;;;;;;;;;6.90;99.90;;;;;;5088240;28;19969;-80
2024/01/25 10:31:07;;;;;;;;;;;6.90;99.90;;;;;;5090168;28;19935;-80
2024/01/25 10:33:33;;;;;;;;;;;7.00;99.90;;;;;;5090112;28;19928;-80
2024/01/25 10:36:03;;;;;;;;;;;7.20;99.90;;;;;;5089452;28;19931;-80
2024/01/25 10:38:32;;;;;;;;;;;7.40;99.90;;;;;;5106395;28;19927;-80
2024/01/25 10:41:01;;;;;;;;;;;7.70;99.90;;;;;;5089401;28;19924;-80
2024/01/25 10:43:28;;;;;;;;;;;8.00;99.90;;;;;;5090285;28;19938;-80
2024/01/25 10:45:55;;;;;;;;;;;7.90;99.90;;;;;;5103322;28;19928;-80
2024/01/25 10:48:21;;;;;;;;;;;7.90;99.90;;;;;;5072914;28;20018;-80
2024/01/25 10:50:48;;;;;;;;;;;7.70;99.90;;;;;;5090869;28;20014;-81
2024/01/25 10:53:15;;;;;;;;;;;7.90;99.90;;;;;;5072948;28;19931;-81
2024/01/25 10:55:41;;;;;;;;;;;7.70;99.90;;;;;;5104244;28;19935;-80
2024/01/25 10:58:08;;;;;;;;;;;7.70;99.90;;;;;;5087750;28;19950;-80
2024/01/25 11:00:34;;;;;;;;;;;7.90;99.90;;;;;;5088269;28;19947;-80
2024/01/25 11:03:00;;;;;;;;;;;7.90;99.90;;;;;;5079857;28;20289;-80
2024/01/25 11:05:26;;;;;;;;;;;8.00;99.90;;;;;;5103505;28;20201;-80
2024/01/25 11:07:52;;;;;;;;;;;8.00;99.90;;;;;;5088946;28;19928;-80
2024/01/25 11:10:21;;;;;;;;;;;8.20;99.90;;;;;;5052644;28;19923;-80
2024/01/25 11:12:59;;;;;;;;;;;8.00;99.90;;;;;;5072768;28;19996;-80
2024/01/25 11:15:32;;;;;;;;;;;8.00;99.90;;;;;;5072372;28;19981;-79
2024/01/25 11:17:57;;;;;;;;;;;7.90;99.90;;;;;;5070946;28;19927;-80
2024/01/25 11:20:24;;;;;;;;;;;7.90;99.90;;;;;;5088602;28;19972;-80
2024/01/25 11:22:59;;;;;;;;;;;7.90;99.90;;;;;;5104974;28;19959;-81
2024/01/25 11:25:32;;;;;;;;;;;7.80;99.90;;;;;;5070368;28;19936;-80
2024/01/25 11:27:58;;;;;;;;;;;7.80;99.90;;;;;;5088938;28;19928;-80
2024/01/25 11:30:24;;;;;;;;;;;7.70;99.90;;;;;;5073190;28;19923;-81
2024/01/25 11:32:50;;;;;;;;;;;7.80;99.90;;;;;;5088417;28;20393;-80
2024/01/25 11:35:16;;;;;;;;;;;7.80;99.90;;;;;;5070419;28;20040;-80
2024/01/25 11:37:44;;;;;;;;;;;7.70;99.90;;;;;;5104162;28;19924;-80
2024/01/25 11:40:10;;;;;;;;;;;7.90;99.90;;;;;;5085095;28;19934;-80
2024/01/25 11:42:36;;;;;;;;;;;7.80;99.90;;;;;;5087318;28;20018;-80
2024/01/25 11:45:02;;;;;;;;;;;7.80;99.90;;;;;;5086974;28;20014;-81
2024/01/25 11:47:28;;;;;;;;;;;7.80;99.90;;;;;;5087961;28;19927;-80
2024/01/25 11:49:54;;;;;;;;;;;8.10;99.90;;;;;;5088024;28;19953;-80
2024/01/25 11:52:20;;;;;;;;;;;7.70;99.90;;;;;;5088184;28;19924;-81
2024/01/25 11:54:45;;;;;;;;;;;7.80;99.90;;;;;;5088237;28;19927;-79
2024/01/25 11:57:11;;;;;;;;;;;7.70;99.90;;;;;;5087701;28;20362;-80
2024/01/25 11:59:36;;;;;;;;;;;7.70;99.90;;;;;;5080596;28;20371;-80
2024/01/25 12:02:03;;;;;;;;;;;8.00;99.90;;;;;;5091231;28;19928;-80
2024/01/25 12:04:29;;;;;;;;;;;8.10;99.90;;;;;;5055766;28;19927;-80
2024/01/25 12:06:55;;;;;;;;;;;8.10;99.90;;;;;;5061153;28;19927;-80
2024/01/25 12:09:20;;;;;;;;;;;8.20;99.90;;;;;;5104964;27;19928;-80
2024/01/25 12:11:49;;;;;;;;;;;8.20;99.90;;;;;;5076537;28;19934;-79
2024/01/25 12:14:21;;;;;;;;;;;8.10;99.90;;;;;;5109239;28;19967;-80
2024/01/25 12:16:46;;;;;;;;;;;8.20;99.90;;;;;;5093174;28;19963;-79
2024/01/25 12:19:12;;;;;;;;;;;8.20;99.90;;;;;;5074449;28;20305;-80
2024/01/25 12:21:37;;;;;;;;;;;8.40;99.90;;;;;;5075783;28;19931;-80
2024/01/25 12:24:05;;;;;;;;;;;8.40;99.90;;;;;;5089812;28;19928;-80
2024/01/25 12:26:34;;;;;;;;;;;8.30;99.90;;;;;;5075474;28;19923;-79
2024/01/25 12:28:59;;;;;;;;;;;8.40;99.90;;;;;;5091379;28;19934;-80
2024/01/25 12:31:25;;;;;;;;;;;8.50;99.90;;;;;;5073504;28;19936;-80
2024/01/25 12:33:51;;;;;;;;;;;8.50;99.90;;;;;;5074082;28;19928;-80
2024/01/25 12:36:22;;;;;;;;;;;8.50;99.90;;;;;;5077747;28;19938;-81
2024/01/25 12:38:48;;;;;;;;;;;8.60;99.90;;;;;;5092332;28;20493;-80
2024/01/25 12:41:14;;;;;;;;;;;8.60;99.90;;;;;;5091774;28;20004;-80
2024/01/25 12:43:40;;;;;;;;;;;8.70;99.90;;;;;;5060164;28;20417;-80
2024/01/25 12:46:06;;;;;;;;;;;8.70;99.90;;;;;;5093066;28;20378;-80
2024/01/25 12:48:37;;;;;;;;;;;8.80;99.90;;;;;;5093440;28;20006;-80
2024/01/25 12:51:03;;;;;;;;;;;8.50;99.90;;;;;;5074174;28;19924;-80
2024/01/25 12:53:28;;;;;;;;;;;8.60;99.90;;;;;;5092494;28;20484;-80
2024/01/25 12:55:54;;;;;;;;;;;8.80;99.90;;;;;;5091531;28;19928;-80
2024/01/25 12:58:20;;;;;;;;;;;8.50;99.90;;;;;;5076911;28;20285;-80
2024/01/25 13:00:45;;;;;;;;;;;8.70;99.90;;;;;;5072373;28;19992;-79
2024/01/25 13:03:12;;;;;;;;;;;8.80;99.90;;;;;;5092657;28;20445;-80
2024/01/25 13:05:39;;;;;;;;;;;8.80;99.90;;;;;;5074430;28;19934;-80
2024/01/25 13:08:05;;;;;;;;;;;8.80;99.90;;;;;;5059577;28;19932;-80
2024/01/25 13:10:33;;;;;;;;;;;8.50;99.90;;;;;;5072649;28;19924;-80
2024/01/25 13:13:02;;;;;;;;;;;8.60;99.90;;;;;;5090889;28;19927;-79
2024/01/25 13:15:27;;;;;;;;;;;8.50;99.90;;;;;;5090511;28;19924;-81
2024/01/25 13:17:53;;;;;;;;;;;8.60;99.90;;;;;;5110585;28;19924;-80
2024/01/25 13:20:19;;;;;;;;;;;8.80;99.90;;;;;;5073846;28;20015;-80
2024/01/25 13:22:45;;;;;;;;;;;8.80;99.90;;;;;;5092495;28;19931;-80
2024/01/25 13:25:13;;;;;;;;;;;8.50;99.90;;;;;;5092317;28;19981;-80
2024/01/25 13:27:38;;;;;;;;;;;8.60;99.90;;;;;;5059852;28;20012;-80
2024/01/25 13:30:05;;;;;;;;;;;8.50;99.90;;;;;;5089978;28;20007;-80
2024/01/25 13:32:36;;;;;;;;;;;8.50;99.90;;;;;;5091392;28;20473;-80
2024/01/25 13:35:02;;;;;;;;;;;8.40;99.90;;;;;;5070567;28;19983;-80
2024/01/25 13:37:27;;;;;;;;;;;8.30;99.90;;;;;;5089598;28;19930;-80
2024/01/25 13:39:53;;;;;;;;;;;8.20;99.90;;;;;;5091177;28;20367;-81
2024/01/25 13:42:19;;;;;;;;;;;8.40;99.90;;;;;;5071792;27;20016;-80
2024/01/25 13:44:44;;;;;;;;;;;8.20;99.90;;;;;;5087467;28;20390;-80
2024/01/25 13:47:10;;;;;;;;;;;8.30;99.90;;;;;;5075084;28;20282;-80
2024/01/25 13:49:36;;;;;;;;;;;8.20;99.90;;;;;;5090777;28;19935;-80
2024/01/25 13:52:02;;;;;;;;;;;8.00;99.90;;;;;;5074272;28;19971;-80
2024/01/25 13:54:29;;;;;;;;;;;8.20;99.90;;;;;;5090464;28;20022;-81
2024/01/25 13:56:55;;;;;;;;;;;8.00;99.90;;;;;;5091023;28;19934;-80
2024/01/25 13:59:21;;;;;;;;;;;7.80;99.90;;;;;;5064975;28;20081;-80
2024/01/25 14:01:46;;;;;;;;;;;7.80;99.90;;;;;;5071678;28;19927;-80
2024/01/25 14:04:13;;;;;;;;;;;7.70;99.90;;;;;;5091928;28;19928;-80
2024/01/25 14:06:39;;;;;;;;;;;8.00;99.90;;;;;;5073902;28;19924;-80
2024/01/25 14:09:05;;;;;;;;;;;7.60;99.90;;;;;;5074154;28;19928;-79
2024/01/25 14:11:32;;;;;;;;;;;7.90;99.90;;;;;;5067701;28;20021;-80
2024/01/25 14:13:57;;;;;;;;;;;7.70;99.90;;;;;;5051051;28;19932;-80
2024/01/25 14:16:23;;;;;;;;;;;7.90;99.90;;;;;;5084275;28;19931;-80
2024/01/25 14:18:48;;;;;;;;;;;8.00;99.90;;;;;;5084838;28;19927;-80
2024/01/25 14:21:15;;;;;;;;;;;7.80;99.90;;;;;;5083450;28;19928;-80
2024/01/25 14:23:41;;;;;;;;;;;7.50;99.90;;;;;;5083260;28;19931;-79
2024/01/25 14:26:06;;;;;;;;;;;7.80;99.90;;;;;;5067856;28;19928;-79